createdAt,value
2018-08-12T00:00:40.245Z,11.90
2018-08-12T00:03:09.296Z,11.90
2018-08-12T00:05:38.644Z,11.80
2018-08-12T00:08:07.795Z,11.90
2018-08-12T00:10:37.046Z,11.90
2018-08-12T00:13:06.375Z,11.90
2018-08-12T00:15:35.610Z,11.90
2018-08-12T00:18:04.886Z,11.90
2018-08-12T00:20:34.122Z,11.90
2018-08-12T00:23:03.482Z,11.90
2018-08-12T00:25:32.626Z,11.80
2018-08-12T00:28:02.017Z,11.80
2018-08-12T00:30:31.268Z,11.70
2018-08-12T00:33:00.270Z,11.60
2018-08-12T00:35:29.336Z,11.50
2018-08-12T00:37:58.618Z,11.50
2018-08-12T00:40:27.835Z,11.40
2018-08-12T00:42:57.376Z,11.30
2018-08-12T00:45:26.675Z,11.30
2018-08-12T00:47:55.893Z,11.20
2018-08-12T00:50:25.285Z,11.10
2018-08-12T00:52:54.847Z,11.10
2018-08-12T00:55:24.196Z,11.00
2018-08-12T00:57:53.214Z,11.10
2018-08-12T01:00:23.748Z,11.00
2018-08-12T01:02:54.382Z,11.10
2018-08-12T01:05:25.528Z,11.10
2018-08-12T01:07:55.917Z,11.10
2018-08-12T01:10:25.598Z,11.10
2018-08-12T01:12:54.933Z,11.00
2018-08-12T01:15:24.562Z,11.00
2018-08-12T01:17:54.221Z,11.00
2018-08-12T01:20:25.819Z,11.00
2018-08-12T01:22:55.180Z,10.90
2018-08-12T01:25:25.014Z,10.90
2018-08-12T01:27:54.642Z,10.90
2018-08-12T01:30:24.212Z,10.90
2018-08-12T01:32:53.886Z,10.80
2018-08-12T01:35:23.514Z,10.80
2018-08-12T01:37:52.867Z,10.70
2018-08-12T01:40:22.202Z,10.70
2018-08-12T01:42:51.707Z,10.70
2018-08-12T01:45:21.616Z,10.70
2018-08-12T01:47:51.147Z,10.70
2018-08-12T01:50:21.485Z,10.70
2018-08-12T01:52:51.915Z,10.60
2018-08-12T01:55:21.471Z,10.60
2018-08-12T01:57:51.184Z,10.60
2018-08-12T02:00:22.303Z,10.60
2018-08-12T02:02:52.407Z,10.50
2018-08-12T02:05:22.280Z,10.40
2018-08-12T02:07:52.293Z,10.40
2018-08-12T02:10:22.269Z,10.40
2018-08-12T02:12:52.045Z,10.40
2018-08-12T02:15:21.756Z,10.30
2018-08-12T02:17:50.956Z,10.30
2018-08-12T02:20:20.092Z,10.30
2018-08-12T02:22:49.308Z,10.30
2018-08-12T02:25:18.594Z,10.30
2018-08-12T02:27:47.758Z,10.20
2018-08-12T02:30:16.844Z,10.20
2018-08-12T02:32:45.885Z,10.20
2018-08-12T02:35:14.938Z,10.20
2018-08-12T02:37:44.215Z,10.20
2018-08-12T02:40:13.242Z,10.10
2018-08-12T02:42:42.418Z,10.10
2018-08-12T02:45:13.628Z,10.00
2018-08-12T02:47:42.821Z,10.00
2018-08-12T02:50:12.316Z,10.10
2018-08-12T02:52:41.403Z,10.10
2018-08-12T02:55:11.167Z,10.00
2018-08-12T02:57:40.545Z,10.00
2018-08-12T03:00:11.240Z,10.00
2018-08-12T03:02:40.570Z,10.00
2018-08-12T03:05:09.640Z,10.00
2018-08-12T03:07:39.113Z,10.00
2018-08-12T03:10:08.553Z,10.00
2018-08-12T03:12:37.898Z,10.00
2018-08-12T03:15:08.398Z,9.90
2018-08-12T03:17:37.867Z,9.90
2018-08-12T03:20:09.128Z,9.90
2018-08-12T03:22:38.364Z,9.80
2018-08-12T03:25:08.858Z,9.80
2018-08-12T03:27:38.216Z,9.80
2018-08-12T03:30:08.422Z,9.70
2018-08-12T03:32:37.555Z,9.70
2018-08-12T03:35:06.609Z,9.70
2018-08-12T03:37:35.734Z,9.60
2018-08-12T03:40:07.370Z,9.60
2018-08-12T03:42:36.490Z,9.60
2018-08-12T03:45:06.992Z,9.50
2018-08-12T03:47:36.123Z,9.50
2018-08-12T03:50:05.759Z,9.50
2018-08-12T03:52:34.815Z,9.40
2018-08-12T03:55:04.714Z,9.40
2018-08-12T03:57:33.773Z,9.40
2018-08-12T04:00:02.789Z,9.40
2018-08-12T04:02:31.994Z,9.30
2018-08-12T04:05:01.221Z,9.30
2018-08-12T04:07:30.602Z,9.30
2018-08-12T04:09:59.881Z,9.40
2018-08-12T04:12:29.251Z,9.40
2018-08-12T04:14:58.383Z,9.40
2018-08-12T04:17:27.647Z,9.40
2018-08-12T04:19:56.867Z,9.40
2018-08-12T04:22:26.163Z,9.50
2018-08-12T04:24:55.375Z,9.60
2018-08-12T04:27:24.495Z,10.10
2018-08-12T04:29:53.855Z,10.80
2018-08-12T04:32:23.196Z,11.70
2018-08-12T04:34:52.564Z,12.40
2018-08-12T04:37:22.146Z,13.20
2018-08-12T04:39:51.243Z,14.10
2018-08-12T04:42:20.281Z,14.80
2018-08-12T04:44:49.293Z,15.10
2018-08-12T04:47:18.360Z,15.10
2018-08-12T04:49:47.595Z,14.90
2018-08-12T04:52:16.883Z,14.80
2018-08-12T04:54:46.254Z,14.50
2018-08-12T04:57:15.363Z,14.20
2018-08-12T04:59:44.589Z,13.90
2018-08-12T05:02:13.710Z,13.70
2018-08-12T05:04:43.085Z,13.60
2018-08-12T05:07:12.465Z,13.60
2018-08-12T05:09:41.628Z,13.80
2018-08-12T05:12:10.918Z,14.40
2018-08-12T05:14:40.330Z,15.70
2018-08-12T05:17:09.646Z,17.30
2018-08-12T05:19:38.898Z,18.10
2018-08-12T05:22:08.117Z,19.10
2018-08-12T05:24:37.583Z,20.60
2018-08-12T05:27:07.180Z,21.90
2018-08-12T05:29:36.619Z,23.00
2018-08-12T05:32:06.209Z,24.30
2018-08-12T05:34:35.654Z,25.50
2018-08-12T05:37:05.066Z,26.30
2018-08-12T05:39:34.463Z,26.80
2018-08-12T05:42:04.059Z,26.80
2018-08-12T05:44:33.460Z,26.80
2018-08-12T05:47:02.921Z,27.60
2018-08-12T05:49:32.380Z,28.20
2018-08-12T05:52:01.874Z,28.70
2018-08-12T05:54:31.221Z,29.10
2018-08-12T05:57:00.565Z,29.60
2018-08-12T05:59:29.907Z,29.80
2018-08-12T06:01:59.347Z,30.30
2018-08-12T06:04:28.666Z,30.60
2018-08-12T06:06:58.060Z,30.40
2018-08-12T06:09:27.503Z,29.70
2018-08-12T06:11:56.768Z,29.80
2018-08-12T06:14:26.164Z,30.60
2018-08-12T06:16:56.532Z,31.60
2018-08-12T06:19:25.830Z,32.30
2018-08-12T06:21:55.107Z,32.10
2018-08-12T06:24:24.226Z,32.30
2018-08-12T06:26:53.447Z,32.70
2018-08-12T06:29:22.473Z,32.60
2018-08-12T06:31:51.861Z,33.10
2018-08-12T06:34:21.167Z,33.20
2018-08-12T06:36:50.370Z,33.50
2018-08-12T06:39:19.559Z,33.50
2018-08-12T06:41:48.949Z,31.50
2018-08-12T06:44:18.130Z,30.90
2018-08-12T06:46:47.370Z,31.90
2018-08-12T06:49:16.693Z,32.80
2018-08-12T06:51:46.131Z,33.30
2018-08-12T06:54:15.469Z,33.90
2018-08-12T06:56:44.764Z,33.00
2018-08-12T06:59:14.218Z,31.10
2018-08-12T07:01:43.469Z,29.80
2018-08-12T07:04:13.269Z,29.20
2018-08-12T07:06:42.536Z,29.30
2018-08-12T07:09:12.241Z,29.70
2018-08-12T07:11:41.559Z,29.90
2018-08-12T07:14:10.893Z,30.20
2018-08-12T07:16:40.189Z,31.60
2018-08-12T07:19:09.546Z,33.50
2018-08-12T07:21:38.944Z,35.60
2018-08-12T07:24:08.368Z,36.30
2018-08-12T07:26:37.696Z,35.90
2018-08-12T07:29:07.475Z,35.30
2018-08-12T07:31:36.607Z,34.70
2018-08-12T07:34:05.862Z,34.70
2018-08-12T07:36:35.088Z,34.50
2018-08-12T07:39:05.874Z,33.90
2018-08-12T07:41:35.187Z,34.60
2018-08-12T07:44:04.444Z,35.50
2018-08-12T07:46:34.014Z,34.80
2018-08-12T07:49:03.778Z,34.60
2018-08-12T07:51:33.277Z,35.50
2018-08-12T07:54:03.330Z,36.90
2018-08-12T07:56:32.672Z,37.60
2018-08-12T07:59:02.245Z,38.70
2018-08-12T08:01:31.398Z,39.50
2018-08-12T08:04:00.642Z,39.10
2018-08-12T08:06:29.799Z,38.60
2018-08-12T08:08:59.053Z,38.00
2018-08-12T08:11:28.099Z,38.50
2018-08-12T08:13:57.208Z,39.40
2018-08-12T08:16:26.519Z,39.90
2018-08-12T08:18:55.760Z,39.80
2018-08-12T08:21:25.154Z,40.20
2018-08-12T08:23:54.470Z,39.20
2018-08-12T08:26:23.717Z,38.00
2018-08-12T08:28:52.901Z,37.20
2018-08-12T08:31:22.372Z,37.20
2018-08-12T08:33:51.891Z,38.00
2018-08-12T08:36:21.863Z,37.80
2018-08-12T08:38:51.215Z,36.70
2018-08-12T08:41:20.632Z,37.20
2018-08-12T08:43:50.040Z,36.90
2018-08-12T08:46:19.332Z,37.90
2018-08-12T08:48:48.630Z,39.40
2018-08-12T08:51:17.845Z,39.80
2018-08-12T08:53:47.154Z,40.50
2018-08-12T08:56:16.200Z,40.80
2018-08-12T08:58:45.358Z,41.40
2018-08-12T09:01:14.518Z,42.10
2018-08-12T09:03:44.012Z,41.40
2018-08-12T09:06:13.448Z,40.40
2018-08-12T09:08:43.142Z,40.60
2018-08-12T09:11:12.172Z,41.20
2018-08-12T09:13:41.437Z,41.90
2018-08-12T09:16:10.927Z,42.60
2018-08-12T09:18:40.336Z,42.40
2018-08-12T09:21:09.499Z,42.40
2018-08-12T09:23:38.694Z,42.50
2018-08-12T09:26:07.960Z,42.80
2018-08-12T09:28:37.254Z,42.80
2018-08-12T09:31:06.626Z,43.30
2018-08-12T09:33:35.673Z,44.00
2018-08-12T09:36:04.936Z,44.60
2018-08-12T09:38:34.196Z,44.90
2018-08-12T09:41:03.784Z,45.30
2018-08-12T09:43:33.163Z,45.10
2018-08-12T09:46:02.813Z,45.30
2018-08-12T09:48:32.417Z,45.40
2018-08-12T09:51:01.593Z,45.30
2018-08-12T09:53:30.946Z,45.40
2018-08-12T09:56:00.312Z,45.20
2018-08-12T09:58:29.525Z,44.70
2018-08-12T10:00:58.878Z,44.10
2018-08-12T10:03:28.025Z,43.90
2018-08-12T10:05:57.323Z,43.70
2018-08-12T10:08:26.590Z,43.80
2018-08-12T10:11:02.559Z,43.70
2018-08-12T10:13:31.837Z,43.50
2018-08-12T10:16:01.184Z,43.40
2018-08-12T10:18:30.736Z,42.90
2018-08-12T10:20:59.883Z,42.70
2018-08-12T10:23:29.358Z,42.80
2018-08-12T10:25:58.589Z,43.10
2018-08-12T10:28:27.966Z,43.50
2018-08-12T10:30:57.130Z,43.90
2018-08-12T10:33:26.400Z,43.90
2018-08-12T10:35:55.750Z,43.70
2018-08-12T10:38:24.861Z,43.10
2018-08-12T10:40:54.155Z,42.70
2018-08-12T10:43:23.661Z,42.80
2018-08-12T10:45:52.879Z,42.20
2018-08-12T10:48:22.213Z,40.30
2018-08-12T10:50:51.560Z,38.90
2018-08-12T10:53:20.680Z,36.70
2018-08-12T10:55:50.001Z,35.50
2018-08-12T10:58:19.207Z,35.30
2018-08-12T11:00:48.688Z,36.30
2018-08-12T11:03:18.339Z,36.90
2018-08-12T11:05:50.076Z,36.40
2018-08-12T11:08:19.389Z,37.50
2018-08-12T11:10:48.759Z,37.50
2018-08-12T11:13:17.822Z,37.50
2018-08-12T11:15:47.087Z,37.00
2018-08-12T11:18:16.106Z,34.90
2018-08-12T11:20:45.356Z,33.70
2018-08-12T11:23:14.480Z,34.50
2018-08-12T11:25:43.614Z,34.60
2018-08-12T11:28:12.747Z,34.80
2018-08-12T11:30:41.999Z,35.40
2018-08-12T11:33:11.263Z,36.30
2018-08-12T11:35:40.491Z,37.40
2018-08-12T11:38:09.710Z,38.10
2018-08-12T11:40:39.114Z,37.40
2018-08-12T11:43:08.534Z,37.60
2018-08-12T11:45:37.809Z,38.10
2018-08-12T11:48:07.061Z,38.80
2018-08-12T11:50:36.487Z,39.30
2018-08-12T11:53:05.918Z,39.70
2018-08-12T11:55:35.085Z,39.60
2018-08-12T11:58:04.221Z,39.40
2018-08-12T12:00:33.420Z,39.10
2018-08-12T12:03:02.689Z,38.20
2018-08-12T12:05:32.058Z,37.60
2018-08-12T12:08:01.104Z,37.40
2018-08-12T12:10:30.495Z,37.60
2018-08-12T12:12:59.720Z,37.00
2018-08-12T12:15:28.826Z,36.80
2018-08-12T12:17:57.928Z,36.00
2018-08-12T12:20:27.159Z,35.00
2018-08-12T12:22:56.296Z,34.30
2018-08-12T12:25:25.407Z,33.70
2018-08-12T12:27:54.486Z,33.70
2018-08-12T12:30:23.996Z,34.30
2018-08-12T12:32:54.171Z,34.90
2018-08-12T12:35:23.543Z,35.60
2018-08-12T12:37:52.720Z,36.30
2018-08-12T12:40:21.764Z,36.60
2018-08-12T12:42:51.100Z,36.60
2018-08-12T12:45:20.345Z,36.80
2018-08-12T12:47:50.062Z,37.00
2018-08-12T12:50:21.156Z,36.70
2018-08-12T12:52:51.509Z,36.10
2018-08-12T12:55:21.859Z,36.10
2018-08-12T12:57:50.932Z,36.30
2018-08-12T13:00:21.058Z,35.70
2018-08-12T13:02:50.550Z,35.40
2018-08-12T13:05:20.943Z,35.40
2018-08-12T13:07:50.793Z,34.90
2018-08-12T13:10:26.444Z,34.70
2018-08-12T13:12:55.837Z,34.50
2018-08-12T13:15:25.146Z,34.50
2018-08-12T13:17:54.425Z,34.40
2018-08-12T13:20:23.780Z,34.50
2018-08-12T13:22:53.095Z,35.00
2018-08-12T13:25:23.491Z,35.30
2018-08-12T13:27:52.890Z,35.30
2018-08-12T13:30:22.550Z,34.70
2018-08-12T13:32:51.988Z,34.00
2018-08-12T13:35:21.114Z,33.60
2018-08-12T13:37:50.389Z,33.50
2018-08-12T13:40:19.706Z,33.70
2018-08-12T13:42:49.151Z,34.00
2018-08-12T13:45:18.446Z,34.30
2018-08-12T13:47:47.715Z,34.50
2018-08-12T13:50:22.063Z,34.70
2018-08-12T13:52:52.006Z,34.60
2018-08-12T13:55:22.088Z,34.50
2018-08-12T13:57:52.449Z,34.40
2018-08-12T14:00:23.420Z,33.90
2018-08-12T14:02:52.954Z,32.60
2018-08-12T14:05:22.717Z,32.00
2018-08-12T14:07:52.316Z,31.90
2018-08-12T14:10:21.650Z,32.00
2018-08-12T14:12:50.934Z,32.70
2018-08-12T14:15:21.215Z,33.20
2018-08-12T14:17:51.198Z,33.50
2018-08-12T14:20:21.351Z,33.60
2018-08-12T14:22:50.878Z,33.70
2018-08-12T14:25:20.312Z,33.80
2018-08-12T14:27:49.706Z,33.90
2018-08-12T14:30:20.704Z,33.80
2018-08-12T14:32:51.352Z,33.70
2018-08-12T14:35:20.678Z,33.60
2018-08-12T14:37:50.045Z,33.30
2018-08-12T14:40:20.066Z,32.80
2018-08-12T14:42:49.493Z,32.30
2018-08-12T14:45:18.897Z,31.90
2018-08-12T14:47:48.193Z,31.90
2018-08-12T14:50:19.611Z,32.10
2018-08-12T14:52:48.944Z,32.10
2018-08-12T14:55:19.579Z,31.60
2018-08-12T14:57:48.933Z,30.80
2018-08-12T15:00:20.836Z,30.40
2018-08-12T15:02:51.543Z,30.40
2018-08-12T15:05:21.157Z,30.50
2018-08-12T15:07:50.822Z,30.40
2018-08-12T15:10:20.104Z,30.40
2018-08-12T15:12:49.313Z,30.50
2018-08-12T15:15:18.609Z,30.60
2018-08-12T15:17:47.816Z,30.50
2018-08-12T15:20:17.655Z,30.30
2018-08-12T15:22:46.754Z,30.10
2018-08-12T15:25:18.399Z,30.10
2018-08-12T15:27:47.845Z,30.10
2018-08-12T15:30:17.366Z,30.00
2018-08-12T15:32:46.655Z,30.10
2018-08-12T15:35:15.987Z,30.20
2018-08-12T15:37:45.196Z,30.20
2018-08-12T15:40:15.093Z,30.00
2018-08-12T15:42:44.735Z,29.60
2018-08-12T15:45:16.349Z,29.20
2018-08-12T15:47:46.080Z,29.00
2018-08-12T15:50:15.524Z,28.90
2018-08-12T15:52:45.836Z,28.80
2018-08-12T15:55:15.295Z,28.90
2018-08-12T15:57:44.773Z,29.10
2018-08-12T16:00:19.765Z,29.20
2018-08-12T16:02:49.157Z,29.20
2018-08-12T16:05:18.694Z,29.00
2018-08-12T16:07:48.752Z,28.90
2018-08-12T16:10:21.613Z,28.90
2018-08-12T16:12:52.108Z,28.80
2018-08-12T16:15:21.969Z,28.50
2018-08-12T16:17:51.336Z,28.30
2018-08-12T16:20:20.803Z,28.10
2018-08-12T16:22:50.307Z,28.00
2018-08-12T16:25:21.878Z,27.80
2018-08-12T16:27:51.287Z,27.70
2018-08-12T16:30:20.858Z,27.60
2018-08-12T16:32:50.237Z,27.60
2018-08-12T16:35:19.634Z,27.60
2018-08-12T16:37:49.107Z,27.60
2018-08-12T16:40:19.853Z,27.70
2018-08-12T16:42:49.505Z,27.70
2018-08-12T16:45:19.311Z,27.70
2018-08-12T16:47:49.007Z,27.70
2018-08-12T16:50:18.313Z,27.60
2018-08-12T16:52:47.660Z,27.40
2018-08-12T16:55:18.109Z,27.30
2018-08-12T16:57:48.200Z,27.20
2018-08-12T17:00:20.417Z,27.10
2018-08-12T17:02:49.926Z,27.20
2018-08-12T17:05:20.439Z,27.20
2018-08-12T17:07:50.266Z,27.20
2018-08-12T17:10:20.455Z,27.10
2018-08-12T17:12:49.758Z,27.00
2018-08-12T17:15:20.615Z,27.00
2018-08-12T17:17:50.499Z,26.90
2018-08-12T17:20:21.219Z,26.90
2018-08-12T17:22:51.475Z,27.00
2018-08-12T17:25:20.942Z,27.00
2018-08-12T17:27:50.478Z,27.00
2018-08-12T17:30:19.907Z,27.00
2018-08-12T17:32:49.130Z,27.00
2018-08-12T17:35:18.398Z,26.90
2018-08-12T17:37:47.711Z,26.90
2018-08-12T17:40:17.032Z,26.80
2018-08-12T17:42:46.616Z,26.80
2018-08-12T17:45:15.898Z,26.70
2018-08-12T17:47:45.245Z,26.60
2018-08-12T17:50:16.067Z,26.50
2018-08-12T17:52:45.325Z,26.40
2018-08-12T17:55:14.544Z,26.40
2018-08-12T17:57:44.019Z,26.30
2018-08-12T18:00:14.847Z,26.20
2018-08-12T18:02:44.298Z,26.10
2018-08-12T18:05:13.821Z,26.00
2018-08-12T18:07:43.192Z,25.90
2018-08-12T18:10:12.646Z,25.80
2018-08-12T18:12:42.129Z,25.60
2018-08-12T18:15:12.037Z,25.50
2018-08-12T18:17:42.000Z,25.30
2018-08-12T18:20:11.665Z,25.10
2018-08-12T18:22:41.162Z,24.90
2018-08-12T18:25:11.488Z,24.60
2018-08-12T18:27:40.682Z,24.40
2018-08-12T18:30:12.162Z,24.10
2018-08-12T18:32:41.889Z,24.00
2018-08-12T18:35:12.300Z,23.80
2018-08-12T18:37:41.846Z,23.60
2018-08-12T18:40:12.507Z,23.40
2018-08-12T18:42:41.945Z,23.20
2018-08-12T18:45:11.471Z,23.10
2018-08-12T18:47:40.848Z,22.90
2018-08-12T18:50:11.121Z,22.80
2018-08-12T18:52:40.963Z,22.70
2018-08-12T18:55:11.886Z,22.60
2018-08-12T18:57:41.453Z,22.40
2018-08-12T19:00:13.094Z,22.30
2018-08-12T19:02:42.514Z,22.20
2018-08-12T19:05:12.813Z,22.10
2018-08-12T19:07:42.632Z,22.10
2018-08-12T19:10:12.109Z,22.00
2018-08-12T19:12:42.370Z,21.80
2018-08-12T19:15:12.492Z,21.70
2018-08-12T19:17:41.815Z,21.70
2018-08-12T19:20:11.345Z,21.60
2018-08-12T19:22:40.698Z,21.50
2018-08-12T19:25:10.466Z,21.40
2018-08-12T19:27:39.867Z,21.30
2018-08-12T19:30:11.433Z,21.20
2018-08-12T19:32:40.735Z,21.10
2018-08-12T19:35:10.998Z,21.00
2018-08-12T19:37:40.762Z,20.80
2018-08-12T19:40:10.268Z,20.60
2018-08-12T19:42:39.791Z,20.50
2018-08-12T19:45:10.188Z,20.30
2018-08-12T19:47:39.678Z,20.20
2018-08-12T19:50:09.250Z,20.10
2018-08-12T19:52:38.631Z,20.00
2018-08-12T19:55:08.416Z,20.00
2018-08-12T19:57:37.878Z,20.00
2018-08-12T20:00:09.825Z,19.90
2018-08-12T20:02:39.470Z,19.90
2018-08-12T20:05:08.685Z,19.80
2018-08-12T20:07:37.958Z,19.80
2018-08-12T20:10:08.864Z,19.80
2018-08-12T20:12:38.210Z,19.80
2018-08-12T20:15:09.484Z,19.80
2018-08-12T20:17:39.561Z,19.80
2018-08-12T20:20:10.941Z,19.60
2018-08-12T20:22:40.312Z,19.70
2018-08-12T20:25:09.886Z,19.70
2018-08-12T20:27:39.120Z,19.50
2018-08-12T20:30:10.388Z,19.40
2018-08-12T20:32:40.884Z,19.30
2018-08-12T20:35:10.629Z,19.20
2018-08-12T20:37:39.995Z,19.20
2018-08-12T20:40:09.583Z,19.20
2018-08-12T20:42:39.473Z,19.10
2018-08-12T20:45:09.807Z,19.10
2018-08-12T20:47:40.005Z,19.10
2018-08-12T20:50:10.322Z,19.10
2018-08-12T20:52:40.030Z,19.00
2018-08-12T20:55:10.100Z,18.90
2018-08-12T20:57:39.442Z,18.70
2018-08-12T21:00:10.851Z,18.50
2018-08-12T21:02:40.606Z,18.30
2018-08-12T21:05:10.487Z,18.10
2018-08-12T21:07:41.252Z,18.00
2018-08-12T21:10:12.417Z,17.90
2018-08-12T21:12:42.864Z,17.80
2018-08-12T21:15:12.059Z,17.70
2018-08-12T21:17:41.444Z,17.80
2018-08-12T21:20:10.797Z,17.80
2018-08-12T21:22:40.322Z,17.90
2018-08-12T21:25:09.732Z,17.90
2018-08-12T21:27:39.091Z,17.80
2018-08-12T21:30:08.147Z,17.60
2018-08-12T21:32:37.549Z,17.40
2018-08-12T21:35:06.952Z,17.20
2018-08-12T21:37:36.355Z,17.00
2018-08-12T21:40:05.783Z,16.80
2018-08-12T21:42:35.224Z,16.70
2018-08-12T21:45:05.192Z,16.50
2018-08-12T21:47:35.049Z,16.40
2018-08-12T21:50:04.671Z,16.30
2018-08-12T21:52:34.004Z,16.20
2018-08-12T21:55:03.231Z,16.10
2018-08-12T21:57:32.486Z,16.10
2018-08-12T22:00:01.741Z,16.00
2018-08-12T22:02:31.067Z,15.90
2018-08-12T22:05:00.194Z,15.90
2018-08-12T22:07:29.524Z,15.90
2018-08-12T22:09:59.107Z,15.90
2018-08-12T22:12:28.287Z,15.80
2018-08-12T22:14:57.575Z,15.80
2018-08-12T22:17:27.033Z,15.60
2018-08-12T22:19:56.256Z,15.60
2018-08-12T22:22:25.559Z,15.50
2018-08-12T22:24:54.935Z,15.40
2018-08-12T22:27:24.181Z,15.40
2018-08-12T22:29:53.345Z,15.30
2018-08-12T22:32:22.540Z,15.20
2018-08-12T22:34:51.735Z,15.10
2018-08-12T22:37:21.454Z,15.10
2018-08-12T22:39:51.188Z,15.10
2018-08-12T22:42:20.585Z,15.10
2018-08-12T22:44:49.770Z,15.00
2018-08-12T22:47:19.021Z,15.00
2018-08-12T22:49:48.181Z,15.00
2018-08-12T22:52:17.452Z,14.90
2018-08-12T22:54:46.583Z,14.90
2018-08-12T22:57:15.824Z,14.80
2018-08-12T22:59:44.903Z,14.80
2018-08-12T23:02:14.327Z,14.70
2018-08-12T23:04:43.490Z,14.60
2018-08-12T23:07:12.718Z,14.60
2018-08-12T23:09:41.914Z,14.60
2018-08-12T23:12:11.306Z,14.50
2018-08-12T23:14:40.589Z,14.50
2018-08-12T23:17:09.747Z,14.40
2018-08-12T23:19:39.039Z,14.40
2018-08-12T23:22:08.601Z,14.30
2018-08-12T23:24:37.802Z,14.30
2018-08-12T23:27:07.027Z,14.20
2018-08-12T23:29:36.224Z,14.20
2018-08-12T23:32:06.045Z,14.20
2018-08-12T23:34:35.368Z,14.20
2018-08-12T23:37:04.555Z,14.10
2018-08-12T23:39:33.770Z,14.10
2018-08-12T23:42:02.702Z,14.10
2018-08-12T23:44:31.723Z,14.10
2018-08-12T23:47:00.899Z,14.10
2018-08-12T23:49:30.039Z,14.00
2018-08-12T23:51:59.250Z,14.00
2018-08-12T23:54:28.447Z,14.00
2018-08-12T23:56:57.670Z,14.00
2018-08-12T23:59:26.946Z,13.90
